Time;durP1;ratioP1;P1;durP2;ratioP2;P2;SDS_P1;SDS_P2;PMS_P1;PMS_P2;Temp;Humidity;BMP_temperature;BMP_pressure;BME280_temperature;BME280_humidity;BME280_pressure;Samples;Min_cycle;Max_cycle;Signal;HPM_P1;HPM_P2
2023/02/08 00:00:21;;;;;;;6.35;4.68;;;;;;;18.05;41.12;103777.28;4992967;28;20422;-76
2023/02/08 00:02:46;;;;;;;6.78;5.00;;;;;;;18.04;41.15;103774.69;4993862;28;20057;-75
2023/02/08 00:05:11;;;;;;;7.90;4.85;;;;;;;17.98;41.23;103767.84;4990272;28;20053;-75
2023/02/08 00:07:36;;;;;;;8.60;5.10;;;;;;;18.02;41.24;103772.09;4993347;28;20119;-72
2023/02/08 00:10:04;;;;;;;7.72;5.05;;;;;;;18.00;41.30;103773.94;4992341;28;20050;-71
2023/02/08 00:12:29;;;;;;;11.60;4.82;;;;;;;17.99;41.04;103768.72;4992695;28;20421;-72
2023/02/08 00:14:54;;;;;;;8.82;5.13;;;;;;;17.97;41.02;103768.75;4992814;28;20065;-74
2023/02/08 00:17:20;;;;;;;7.78;4.68;;;;;;;17.95;41.05;103762.69;4992875;28;20394;-71
2023/02/08 00:19:46;;;;;;;7.60;4.53;;;;;;;17.94;40.92;103759.19;5008232;28;20133;-73
2023/02/08 00:22:11;;;;;;;7.85;4.80;;;;;;;17.94;41.39;103764.47;4992424;28;20141;-74
2023/02/08 00:24:37;;;;;;;6.33;4.20;;;;;;;17.92;40.74;103754.88;4991569;28;20034;-74
2023/02/08 00:27:02;;;;;;;7.55;4.55;;;;;;;17.90;40.94;103757.56;4999288;28;20882;-75
2023/02/08 00:29:28;;;;;;;7.57;4.95;;;;;;;17.91;40.88;103758.41;4991922;28;20037;-74
2023/02/08 00:31:53;;;;;;;8.15;4.85;;;;;;;17.86;41.15;103749.78;4991017;28;20042;-73
2023/02/08 00:34:18;;;;;;;6.00;4.32;;;;;;;17.88;41.25;103750.59;4993739;28;20062;-72
2023/02/08 00:36:43;;;;;;;8.05;5.25;;;;;;;17.86;41.15;103760.31;4992407;28;20121;-71
2023/02/08 00:39:09;;;;;;;8.18;5.00;;;;;;;17.86;40.85;103766.44;4992221;28;20026;-72
2023/02/08 00:41:34;;;;;;;7.95;4.70;;;;;;;17.83;40.93;103757.78;4992054;28;20039;-72
2023/02/08 00:43:59;;;;;;;7.53;4.70;;;;;;;17.83;41.18;103769.22;4992607;28;20135;-72
2023/02/08 00:46:25;;;;;;;6.22;4.35;;;;;;;17.81;40.99;103760.47;4992002;28;20034;-72
2023/02/08 00:48:50;;;;;;;7.22;4.32;;;;;;;17.77;40.76;103757.09;4990470;28;20030;-74
2023/02/08 00:51:15;;;;;;;6.93;4.65;;;;;;;17.79;41.21;103756.19;4992436;28;20034;-76
2023/02/08 00:53:43;;;;;;;7.80;4.47;;;;;;;17.78;40.88;103755.31;5007277;28;20038;-73
2023/02/08 00:56:11;;;;;;;5.90;4.22;;;;;;;17.77;40.96;103758.88;4992932;28;20091;-74
2023/02/08 00:58:37;;;;;;;8.27;4.70;;;;;;;17.77;41.09;103761.50;4992038;28;20088;-72
2023/02/08 01:01:03;;;;;;;7.32;4.60;;;;;;;17.75;40.94;103752.75;4992055;28;20038;-71
2023/02/08 01:03:29;;;;;;;7.00;4.78;;;;;;;17.69;40.92;103748.56;4992122;28;20398;-75
2023/02/08 01:05:59;;;;;;;7.85;5.03;;;;;;;17.71;40.75;103745.88;4992417;28;20041;-72
2023/02/08 01:08:25;;;;;;;9.20;4.57;;;;;;;17.72;40.96;103742.31;4991826;28;20077;-72
2023/02/08 01:10:50;;;;;;;8.77;4.70;;;;;;;17.66;40.83;103737.28;4991810;28;20073;-71
2023/02/08 01:13:15;;;;;;;7.00;4.20;;;;;;;17.70;40.84;103749.44;4991793;28;20284;-74
2023/02/08 01:15:41;;;;;;;7.47;4.63;;;;;;;17.66;40.81;103748.69;4991538;28;20452;-73
2023/02/08 01:18:06;;;;;;;6.72;4.40;;;;;;;17.65;40.89;103738.19;4991690;28;20034;-73
2023/02/08 01:20:35;;;;;;;7.38;4.68;;;;;;;17.65;40.78;103744.31;4991620;28;20542;-73
2023/02/08 01:23:01;;;;;;;6.78;4.20;;;;;;;17.64;40.97;103742.59;4991609;28;20129;-73
2023/02/08 01:25:26;;;;;;;7.60;4.50;;;;;;;17.64;40.69;103752.28;4992087;28;20041;-71
2023/02/08 01:27:54;;;;;;;7.68;4.45;;;;;;;17.64;40.90;103742.59;4991654;28;20042;-74
2023/02/08 01:30:19;;;;;;;7.03;4.60;;;;;;;17.63;40.68;103747.94;4991196;28;20070;-75
2023/02/08 01:32:45;;;;;;;7.35;4.70;;;;;;;17.58;40.61;103733.09;4991939;28;20068;-71
2023/02/08 01:35:10;;;;;;;6.00;4.07;;;;;;;17.58;40.63;103729.63;4991153;28;20065;-71
2023/02/08 01:37:35;;;;;;;6.43;4.45;;;;;;;17.58;40.50;103742.81;4993172;28;20037;-73
2023/02/08 01:40:00;;;;;;;7.18;4.40;;;;;;;17.53;40.74;103727.13;4996104;28;20088;-75
2023/02/08 01:42:26;;;;;;;6.80;4.22;;;;;;;17.57;40.78;103739.28;4995979;28;20803;-71
2023/02/08 01:45:19;;;;;;;7.57;4.55;;;;;;;17.56;40.88;103734.06;4995384;28;20268;-73
2023/02/08 01:47:47;;;;;;;7.50;4.53;;;;;;;17.43;40.42;103712.50;4996588;28;20033;-74
2023/02/08 01:50:14;;;;;;;6.40;4.40;;;;;;;17.49;40.83;103722.88;4995850;28;20099;-72
2023/02/08 01:52:42;;;;;;;7.80;4.25;;;;;;;17.52;40.66;103730.66;4995136;28;20045;-71
2023/02/08 01:55:14;;;;;;;7.20;4.60;;;;;;;17.49;40.60;103730.78;4995073;28;20092;-72
2023/02/08 01:57:40;;;;;;;8.27;4.35;;;;;;;17.50;40.77;103728.97;4995325;28;20100;-73
2023/02/08 02:00:16;;;;;;;6.72;4.40;;;;;;;17.47;40.48;103735.25;4995659;28;20042;-73
2023/02/08 02:02:44;;;;;;;6.97;4.35;;;;;;;17.46;40.48;103738.78;4995051;28;20043;-73
2023/02/08 02:05:10;;;;;;;7.32;4.15;;;;;;;17.38;40.73;103723.22;4994370;28;20100;-72
2023/02/08 02:07:37;;;;;;;6.60;4.38;;;;;;;17.44;40.36;103731.84;4994727;28;20034;-72
2023/02/08 02:10:08;;;;;;;8.68;4.35;;;;;;;17.40;40.76;103723.16;4995110;28;20460;-72
2023/02/08 02:12:36;;;;;;;7.25;4.95;;;;;;;17.43;40.48;103733.59;4994955;28;20096;-74
2023/02/08 02:15:02;;;;;;;7.30;4.63;;;;;;;17.41;40.46;103731.03;4994273;28;20386;-72
2023/02/08 02:17:28;;;;;;;6.45;4.05;;;;;;;17.44;40.66;103737.13;4995855;28;20038;-74
2023/02/08 02:20:03;;;;;;;6.70;4.20;;;;;;;17.43;40.30;103735.38;4994566;28;20438;-73
2023/02/08 02:22:47;;;;;;;7.07;4.55;;;;;;;17.40;40.45;103731.94;5010416;28;20042;-72
2023/02/08 02:25:43;;;;;;;7.03;4.40;;;;;;;17.41;40.33;103733.66;4994917;28;20085;-73
2023/02/08 02:28:51;;;;;;;8.10;4.05;;;;;;;17.40;40.54;103729.31;4994509;28;20053;-75
2023/02/08 02:31:44;;;;;;;6.32;4.28;;;;;;;17.38;40.31;103725.84;4995120;28;20041;-75
2023/02/08 02:34:31;;;;;;;7.75;4.43;;;;;;;17.37;40.45;103732.06;4994659;28;20042;-72
2023/02/08 02:37:30;;;;;;;7.15;4.70;;;;;;;17.34;40.68;103728.63;5000811;28;20069;-73
2023/02/08 02:40:13;;;;;;;8.05;4.80;;;;;;;17.36;40.53;103725.03;4994640;28;20049;-72
2023/02/08 02:45:55;;;;;;;6.43;4.15;;;;;;;17.29;40.63;103725.28;4994026;28;20036;-74
2023/02/08 02:48:39;;;;;;;7.82;4.30;;;;;;;17.32;40.26;103728.72;4995114;28;20044;-71
2023/02/08 02:51:26;;;;;;;6.38;4.10;;;;;;;17.29;40.37;103722.66;4993713;28;20403;-74
2023/02/08 02:53:54;;;;;;;7.05;4.50;;;;;;;17.32;40.36;103727.81;4994267;28;20489;-75
2023/02/08 02:56:36;;;;;;;7.15;4.25;;;;;;;17.27;40.43;103717.41;4995135;28;20172;-73
2023/02/08 02:59:07;;;;;;;7.13;4.07;;;;;;;17.27;40.15;103714.78;4994272;28;20045;-74
2023/02/08 03:01:33;;;;;;;7.03;4.35;;;;;;;17.28;40.54;103723.56;4994304;28;20030;-73
2023/02/08 03:03:59;;;;;;;8.60;4.88;;;;;;;17.27;40.48;103727.97;4994332;28;20041;-75
2023/02/08 03:07:02;;;;;;;7.40;4.72;;;;;;;17.28;40.17;103721.78;4992216;28;20487;-71
2023/02/08 03:10:03;;;;;;;7.13;4.50;;;;;;;17.31;40.39;103720.84;4994188;28;20781;-74
2023/02/08 03:12:53;;;;;;;8.43;4.75;;;;;;;17.30;40.65;103713.84;4993945;28;20037;-75
2023/02/08 03:15:52;;;;;;;6.65;4.50;;;;;;;17.30;40.67;103716.47;4993309;28;20046;-76
2023/02/08 03:18:35;;;;;;;6.72;4.13;;;;;;;17.30;40.85;103712.06;5000608;28;20437;-74
2023/02/08 03:21:19;;;;;;;8.45;4.30;;;;;;;17.30;40.72;103714.69;4994174;28;20037;-75
2023/02/08 03:23:44;;;;;;;8.98;4.50;;;;;;;17.28;40.96;103708.63;4993296;28;20448;-76
2023/02/08 03:26:30;;;;;;;7.87;4.00;;;;;;;17.32;40.85;103706.75;4993211;28;20073;-76
2023/02/08 03:29:18;;;;;;;7.18;4.82;;;;;;;17.28;40.83;103711.25;4993707;28;20399;-75
2023/02/08 03:31:55;;;;;;;6.90;4.40;;;;;;;17.32;40.97;103712.00;4993689;28;20045;-76
2023/02/08 03:34:45;;;;;;;7.13;4.15;;;;;;;17.33;41.22;103719.88;4999431;28;20041;-76
2023/02/08 03:37:18;;;;;;;6.93;4.05;;;;;;;17.23;41.13;103702.63;4993673;28;20410;-74
2023/02/08 03:39:47;;;;;;;9.60;4.77;;;;;;;17.31;41.20;103713.78;4993425;28;20503;-72
2023/02/08 03:42:18;;;;;;;8.10;4.30;;;;;;;17.30;41.18;103714.69;4993795;28;20422;-73
2023/02/08 03:44:53;;;;;;;7.78;4.25;;;;;;;17.34;41.04;103724.25;4994456;28;20662;-75
2023/02/08 03:47:23;;;;;;;7.70;4.07;;;;;;;17.31;41.04;103712.94;4992631;28;20482;-75
2023/02/08 03:49:51;;;;;;;8.70;4.25;;;;;;;17.30;41.14;103709.41;4993412;28;20077;-72
2023/02/08 03:52:17;;;;;;;8.05;5.25;;;;;;;17.34;41.24;103718.97;4992691;28;20029;-71
2023/02/08 03:54:48;;;;;;;7.43;4.43;;;;;;;17.34;41.26;103715.44;4994302;28;20509;-74
2023/02/08 03:57:21;;;;;;;8.65;4.40;;;;;;;17.32;41.07;103718.16;4992998;28;20041;-72
2023/02/08 03:59:54;;;;;;;9.93;4.32;;;;;;;17.37;41.19;103725.91;4992298;28;20093;-74
2023/02/08 04:02:22;;;;;;;7.18;4.43;;;;;;;17.37;41.22;103715.34;4993082;28;20045;-74
2023/02/08 04:04:50;;;;;;;6.65;3.85;;;;;;;17.32;41.12;103717.28;4993651;28;20484;-72
2023/02/08 04:07:17;;;;;;;7.15;4.10;;;;;;;17.37;41.25;103720.63;4992639;28;20088;-72
2023/02/08 04:09:42;;;;;;;6.82;4.28;;;;;;;17.35;41.13;103711.91;4992436;28;20045;-72
2023/02/08 04:12:08;;;;;;;6.82;4.47;;;;;;;17.34;41.11;103713.69;4993259;28;20034;-71
2023/02/08 04:14:33;;;;;;;9.13;4.50;;;;;;;17.38;41.15;103722.34;4992605;28;20046;-75
2023/02/08 04:16:58;;;;;;;7.75;4.03;;;;;;;17.35;41.10;103717.19;4990736;28;20049;-74
2023/02/08 04:19:24;;;;;;;6.47;3.92;;;;;;;17.34;40.98;103721.59;4993082;28;20093;-74
2023/02/08 04:21:49;;;;;;;6.80;4.35;;;;;;;17.35;41.17;103711.91;4992852;28;20039;-73
2023/02/08 04:24:14;;;;;;;5.88;3.85;;;;;;;17.38;41.33;103719.72;4993203;28;20056;-74
2023/02/08 04:26:39;;;;;;;8.07;4.32;;;;;;;17.33;41.29;103708.47;4991744;28;20034;-74
2023/02/08 04:29:05;;;;;;;7.88;4.07;;;;;;;17.36;41.39;103713.66;4992907;28;20045;-75
2023/02/08 04:31:30;;;;;;;8.67;4.80;;;;;;;17.38;41.30;103714.44;4993027;28;20065;-74
2023/02/08 04:33:55;;;;;;;7.35;4.53;;;;;;;17.34;41.12;103705.78;4992878;28;20287;-73
2023/02/08 04:36:21;;;;;;;7.13;4.18;;;;;;;17.37;40.86;103710.97;4991837;28;20046;-72
2023/02/08 04:38:46;;;;;;;7.53;4.22;;;;;;;17.37;41.08;103705.69;4992872;28;20518;-71
2023/02/08 04:41:11;;;;;;;8.02;3.60;;;;;;;17.35;40.94;103707.50;4991916;28;20037;-70
2023/02/08 04:43:37;;;;;;;7.05;3.90;;;;;;;17.36;41.19;103711.00;4992657;28;20030;-74
2023/02/08 04:46:02;;;;;;;8.45;4.15;;;;;;;17.39;40.97;103716.19;4992084;28;20505;-75
2023/02/08 04:48:28;;;;;;;6.53;4.22;;;;;;;17.37;41.08;103710.97;4992163;28;20038;-74
2023/02/08 04:50:55;;;;;;;7.43;4.22;;;;;;;17.34;40.79;103703.16;4991628;28;20036;-74
2023/02/08 04:53:20;;;;;;;6.65;4.13;;;;;;;17.37;40.98;103718.88;4993180;28;20042;-76
2023/02/08 04:55:46;;;;;;;6.78;4.50;;;;;;;17.37;40.89;103716.22;4992610;28;20031;-74
2023/02/08 04:58:11;;;;;;;7.03;4.10;;;;;;;17.37;40.95;103715.34;4992408;28;20455;-76
2023/02/08 05:00:36;;;;;;;7.57;4.72;;;;;;;17.37;41.17;103721.50;4992061;28;20038;-72
2023/02/08 05:03:02;;;;;;;6.40;3.92;;;;;;;17.37;41.19;103718.88;4992930;28;20032;-76
2023/02/08 05:05:27;;;;;;;6.03;4.05;;;;;;;17.36;40.91;103716.28;5006518;28;20050;-75
2023/02/08 05:07:53;;;;;;;5.95;3.60;;;;;;;17.36;41.01;103711.84;4992153;28;20033;-71
2023/02/08 05:10:18;;;;;;;6.97;4.30;;;;;;;17.36;41.04;103717.13;4992280;28;20038;-73
2023/02/08 05:12:43;;;;;;;7.82;4.10;;;;;;;17.33;41.27;103717.22;4989462;28;21138;-74
2023/02/08 05:15:09;;;;;;;7.50;4.38;;;;;;;17.32;41.19;103709.38;4991638;28;20108;-73
2023/02/08 05:17:35;;;;;;;8.15;4.10;;;;;;;17.32;41.08;103712.88;4991753;28;20045;-71
2023/02/08 05:20:01;;;;;;;8.40;4.35;;;;;;;17.32;41.17;103710.25;4992032;28;20533;-73
2023/02/08 05:22:26;;;;;;;7.32;3.88;;;;;;;17.32;41.38;103715.53;4992202;28;20556;-73
2023/02/08 05:24:51;;;;;;;7.53;4.30;;;;;;;17.32;41.31;103715.53;4992005;28;20026;-74
2023/02/08 05:27:17;;;;;;;8.18;4.13;;;;;;;17.32;41.42;103712.00;4991109;28;20386;-74
2023/02/08 05:29:42;;;;;;;6.40;3.97;;;;;;;17.34;41.51;103721.59;4992172;28;20073;-75
2023/02/08 05:32:07;;;;;;;7.18;3.80;;;;;;;17.36;41.12;103718.91;4992922;28;20037;-72
2023/02/08 05:34:33;;;;;;;7.18;4.07;;;;;;;17.33;41.01;103703.19;4991297;28;20030;-72
2023/02/08 05:36:58;;;;;;;8.75;4.13;;;;;;;17.35;40.45;103719.81;4992249;28;20128;-74
2023/02/08 05:39:23;;;;;;;7.13;3.70;;;;;;;17.33;39.74;103711.97;4992591;28;20104;-73
2023/02/08 05:41:48;;;;;;;6.50;3.53;;;;;;;17.38;39.75;103715.31;4992307;28;20041;-73
2023/02/08 05:44:14;;;;;;;5.97;3.88;;;;;;;17.43;39.37;103715.16;4992118;28;20061;-74
2023/02/08 05:46:39;;;;;;;7.17;3.40;;;;;;;17.47;39.09;103711.50;4990837;28;20068;-73
2023/02/08 05:49:04;;;;;;;7.95;3.60;;;;;;;17.48;38.87;103697.44;4990870;28;20322;-73
2023/02/08 05:51:29;;;;;;;6.07;3.55;;;;;;;17.54;39.08;103699.84;4991650;28;20040;-73
2023/02/08 05:53:55;;;;;;;6.20;3.30;;;;;;;17.58;38.91;103687.44;4991730;28;20516;-74
2023/02/08 05:56:20;;;;;;;6.75;3.40;;;;;;;17.64;38.75;103686.34;4990897;28;20038;-75
2023/02/08 05:58:45;;;;;;;6.78;3.10;;;;;;;17.70;38.85;103686.97;4990382;28;21081;-74
2023/02/08 06:01:12;;;;;;;6.33;3.30;;;;;;;17.75;38.46;103697.38;4991340;28;20031;-73
2023/02/08 06:03:39;;;;;;;6.00;3.70;;;;;;;17.75;38.53;103685.06;4990370;28;20378;-73
2023/02/08 06:06:05;;;;;;;5.63;3.00;;;;;;;17.81;38.70;103694.53;4990984;28;20230;-73
2023/02/08 06:08:30;;;;;;;4.72;2.95;;;;;;;17.82;38.72;103692.78;4990668;28;20053;-75
2023/02/08 06:10:56;;;;;;;6.22;3.42;;;;;;;17.85;38.46;103696.16;4991110;28;20034;-74
2023/02/08 06:13:21;;;;;;;6.70;3.42;;;;;;;17.86;38.53;103697.00;4991229;28;20475;-76
2023/02/08 06:15:46;;;;;;;6.80;3.65;;;;;;;17.90;38.31;103703.94;4990348;28;20038;-74
2023/02/08 06:18:12;;;;;;;7.00;3.60;;;;;;;17.88;38.58;103692.56;4997617;28;20041;-76
2023/02/08 06:20:38;;;;;;;5.90;3.33;;;;;;;17.93;38.43;103709.13;4990853;28;20033;-73
2023/02/08 06:23:03;;;;;;;5.95;3.50;;;;;;;17.93;38.48;103704.69;4992718;28;20387;-74
2023/02/08 06:25:29;;;;;;;6.45;3.58;;;;;;;17.92;38.39;103697.69;4994749;28;20043;-75
2023/02/08 06:27:54;;;;;;;6.35;3.60;;;;;;;17.92;38.47;103700.31;4994733;28;20113;-73
2023/02/08 06:30:19;;;;;;;5.80;3.40;;;;;;;17.93;38.74;103695.94;4995136;28;20497;-74
2023/02/08 06:32:44;;;;;;;5.55;3.30;;;;;;;17.93;38.50;103695.94;4994625;28;20907;-75
2023/02/08 06:35:10;;;;;;;7.07;3.53;;;;;;;17.95;38.33;103694.94;4994710;28;20065;-73
2023/02/08 06:37:35;;;;;;;7.38;3.70;;;;;;;17.97;38.34;103696.66;4994435;28;20126;-73
2023/02/08 06:40:01;;;;;;;7.50;3.10;;;;;;;17.98;38.34;103695.75;4994256;28;20128;-75
2023/02/08 06:42:27;;;;;;;6.50;3.42;;;;;;;17.94;38.37;103690.59;4994418;28;20030;-72
2023/02/08 06:44:54;;;;;;;6.40;3.15;;;;;;;17.94;38.39;103693.22;4994279;28;20060;-74
2023/02/08 06:47:20;;;;;;;7.47;3.30;;;;;;;17.94;38.39;103693.22;4994530;28;20467;-74
2023/02/08 06:49:45;;;;;;;6.03;3.30;;;;;;;17.93;38.37;103698.56;4993883;28;20037;-74
2023/02/08 06:52:11;;;;;;;7.10;3.88;;;;;;;17.95;38.21;103702.00;4993993;28;20042;-74
2023/02/08 06:54:36;;;;;;;6.28;3.30;;;;;;;17.95;38.71;103704.63;4994827;28;20097;-71
2023/02/08 06:57:01;;;;;;;5.13;3.47;;;;;;;17.94;38.66;103705.53;4993291;28;20046;-73
2023/02/08 06:59:27;;;;;;;5.75;3.28;;;;;;;17.90;38.66;103701.31;4993759;28;20037;-74
2023/02/08 07:01:52;;;;;;;5.80;3.58;;;;;;;17.91;38.75;103698.63;4994149;28;20084;-73
2023/02/08 07:04:17;;;;;;;6.05;3.42;;;;;;;17.92;38.67;103700.31;4993465;28;21136;-73
2023/02/08 07:06:43;;;;;;;5.85;3.28;;;;;;;17.88;38.38;103693.44;4993385;28;20510;-74
2023/02/08 07:09:08;;;;;;;6.13;3.67;;;;;;;17.89;38.67;103702.22;4993264;28;20033;-75
2023/02/08 07:11:33;;;;;;;7.45;3.60;;;;;;;17.86;38.71;103697.84;4992977;28;20034;-75
2023/02/08 07:13:59;;;;;;;5.65;3.47;;;;;;;17.90;38.72;103702.16;4993500;28;20077;-74
2023/02/08 07:16:24;;;;;;;7.30;3.78;;;;;;;17.91;38.42;103697.72;4992090;28;20092;-74
2023/02/08 07:18:49;;;;;;;6.63;3.40;;;;;;;17.88;38.54;103693.44;4993783;28;20058;-72
2023/02/08 07:21:15;;;;;;;5.95;3.17;;;;;;;17.89;38.39;103697.78;4994126;28;20030;-72
2023/02/08 07:23:41;;;;;;;9.07;3.78;;;;;;;17.90;38.64;103701.31;4993465;28;20033;-75
2023/02/08 07:26:08;;;;;;;7.20;3.70;;;;;;;17.89;38.27;103699.56;4992594;28;20073;-76
2023/02/08 07:28:35;;;;;;;6.28;3.47;;;;;;;17.93;38.43;103698.56;4993054;28;20121;-72
2023/02/08 07:31:07;;;;;;;5.95;3.13;;;;;;;17.91;38.34;103703.88;4994765;28;20034;-75
2023/02/08 07:33:33;;;;;;;5.80;3.58;;;;;;;17.90;38.61;103693.38;4994114;28;20132;-73
2023/02/08 07:35:58;;;;;;;7.05;3.33;;;;;;;17.91;38.26;103695.09;4993243;28;20406;-76
2023/02/08 07:38:23;;;;;;;6.88;3.38;;;;;;;17.92;38.03;103692.41;4994174;28;20030;-72
2023/02/08 07:40:48;;;;;;;8.40;3.80;;;;;;;17.90;38.09;103691.59;4993070;28;20478;-74
2023/02/08 07:43:14;;;;;;;5.97;3.80;;;;;;;17.92;38.08;103696.81;4994275;28;20259;-76
2023/02/08 07:45:39;;;;;;;7.38;3.67;;;;;;;17.89;38.40;103689.03;4993681;28;20542;-77
2023/02/08 07:48:05;;;;;;;5.75;3.72;;;;;;;17.88;38.20;103696.09;4994231;28;20030;-76
2023/02/08 07:50:30;;;;;;;6.60;3.70;;;;;;;17.81;38.92;103677.84;4992710;28;20034;-74
2023/02/08 07:52:56;;;;;;;7.85;3.72;;;;;;;17.90;38.31;103694.25;4992389;28;20125;-77
2023/02/08 07:55:21;;;;;;;6.72;3.70;;;;;;;17.91;38.70;103695.09;4991903;28;20113;-74
2023/02/08 07:57:48;;;;;;;7.45;4.03;;;;;;;17.90;38.61;103696.88;4992522;28;20034;-75
2023/02/08 08:00:16;;;;;;;6.15;3.35;;;;;;;17.88;38.87;103696.09;4992590;28;20037;-74
2023/02/08 08:02:42;;;;;;;6.45;3.63;;;;;;;17.87;39.04;103699.59;4992899;28;20042;-72
2023/02/08 08:05:08;;;;;;;6.88;3.33;;;;;;;17.90;39.14;103699.53;4992471;28;20050;-71
2023/02/08 08:07:33;;;;;;;7.35;3.55;;;;;;;17.89;38.85;103689.88;4991278;28;20557;-73
2023/02/08 08:09:58;;;;;;;6.45;3.50;;;;;;;17.91;39.03;103695.09;4994161;28;20042;-74
2023/02/08 08:12:24;;;;;;;7.38;3.42;;;;;;;17.92;38.78;103681.00;4992740;28;20033;-74
2023/02/08 08:14:52;;;;;;;6.32;3.63;;;;;;;17.93;39.02;103688.00;4991904;28;20050;-73
2023/02/08 08:17:18;;;;;;;7.78;3.95;;;;;;;17.96;38.82;103677.34;4992395;28;20513;-75
2023/02/08 08:19:44;;;;;;;7.13;3.47;;;;;;;17.98;39.16;103682.56;4991960;28;20026;-73
2023/02/08 08:22:09;;;;;;;6.78;3.75;;;;;;;17.95;39.27;103676.47;4992344;28;20073;-72
2023/02/08 08:24:35;;;;;;;6.47;3.33;;;;;;;17.96;39.19;103674.72;4992368;28;20038;-73
2023/02/08 08:27:02;;;;;;;7.65;3.65;;;;;;;17.97;39.33;103670.28;4992373;28;20034;-72
2023/02/08 08:29:27;;;;;;;8.25;3.67;;;;;;;18.01;39.32;103677.16;4992490;28;20125;-77
2023/02/08 08:31:53;;;;;;;7.75;3.67;;;;;;;18.01;39.42;103675.41;4991917;28;20065;-74
2023/02/08 08:34:18;;;;;;;7.22;3.38;;;;;;;18.04;39.48;103682.31;4993797;28;20038;-74
2023/02/08 08:36:43;;;;;;;6.07;3.92;;;;;;;18.05;39.44;103682.25;4991392;28;20037;-72
2023/02/08 08:39:09;;;;;;;6.10;3.10;;;;;;;18.08;39.58;103684.78;4992488;28;20081;-73
2023/02/08 08:41:35;;;;;;;7.20;3.47;;;;;;;18.11;39.05;103686.47;4992909;28;20474;-68
2023/02/08 08:44:01;;;;;;;7.13;3.65;;;;;;;18.10;39.39;103680.34;4991917;28;20038;-78
2023/02/08 08:46:26;;;;;;;5.90;3.33;;;;;;;18.12;39.47;103682.94;4992692;28;20045;-77
2023/02/08 08:48:52;;;;;;;7.35;3.42;;;;;;;18.03;39.21;103670.91;4992386;28;20057;-75
2023/02/08 08:51:17;;;;;;;7.78;4.15;;;;;;;18.11;39.12;103681.19;4992460;28;20064;-71
2023/02/08 08:53:42;;;;;;;5.72;3.70;;;;;;;18.17;39.15;103669.56;4992176;28;20037;-78
2023/02/08 08:56:08;;;;;;;5.53;3.30;;;;;;;18.30;38.81;103676.09;4991479;28;20056;-78
2023/02/08 08:58:33;;;;;;;5.63;3.03;;;;;;;18.39;38.71;103666.94;4991033;28;20038;-74
2023/02/08 09:00:59;;;;;;;8.63;3.45;;;;;;;18.54;38.69;103668.16;4992192;28;20040;-72
2023/02/08 09:03:26;;;;;;;5.78;2.90;;;;;;;18.64;38.58;103669.53;4992212;28;20395;-72
2023/02/08 09:05:51;;;;;;;5.30;2.80;;;;;;;18.74;38.72;103670.00;4991611;28;20084;-72
2023/02/08 09:08:16;;;;;;;6.70;2.63;;;;;;;18.81;38.22;103677.63;4991241;28;20465;-74
2023/02/08 09:10:42;;;;;;;6.05;2.88;;;;;;;18.79;38.42;103668.94;4992171;28;20036;-70
2023/02/08 09:13:07;;;;;;;5.20;2.38;;;;;;;18.72;38.43;103664.78;4991775;28;20061;-72
2023/02/08 09:15:33;;;;;;;6.15;2.97;;;;;;;18.64;38.17;103656.31;4992219;28;20117;-75
2023/02/08 09:17:58;;;;;;;6.47;3.17;;;;;;;18.63;38.30;103666.03;4992635;28;20035;-73
2023/02/08 09:20:23;;;;;;;6.22;3.38;;;;;;;18.56;38.39;103666.31;4991945;28;20113;-73
2023/02/08 09:22:49;;;;;;;4.82;2.65;;;;;;;18.51;38.58;103663.84;4991567;28;20026;-74
2023/02/08 09:25:14;;;;;;;5.75;3.00;;;;;;;18.45;38.68;103664.97;4999002;28;20450;-76
2023/02/08 09:27:40;;;;;;;5.50;3.15;;;;;;;18.43;38.94;103669.44;4992091;28;20121;-74
2023/02/08 09:30:05;;;;;;;7.07;2.88;;;;;;;18.40;38.87;103672.19;4989499;28;20051;-72
2023/02/08 09:32:36;;;;;;;4.90;2.83;;;;;;;18.35;38.93;103663.56;4989715;28;20037;-72
2023/02/08 09:35:01;;;;;;;5.20;3.10;;;;;;;18.43;39.51;103677.34;4991393;28;20660;-74
2023/02/08 09:37:28;;;;;;;6.35;3.40;;;;;;;18.33;40.13;103670.72;4991546;28;20041;-74
2023/02/08 09:39:53;;;;;;;7.05;2.95;;;;;;;18.22;40.16;103673.75;4990196;28;20070;-74
2023/02/08 09:42:38;;;;;;;5.63;3.03;;;;;;;18.19;40.16;103684.41;4991967;28;20812;-75
2023/02/08 09:45:38;;;;;;;6.22;2.83;;;;;;;18.16;40.17;103681.03;4991426;28;20069;-74
2023/02/08 09:48:25;;;;;;;4.45;2.83;;;;;;;18.18;39.99;103681.81;4975696;28;20065;-75
2023/02/08 09:51:09;;;;;;;5.03;2.70;;;;;;;18.17;40.00;103683.63;4991249;28;20038;-75
2023/02/08 09:53:39;;;;;;;6.78;3.10;;;;;;;18.13;40.03;103674.97;4991290;28;20040;-75
2023/02/08 09:56:08;;;;;;;5.57;3.10;;;;;;;18.13;39.87;103688.16;4990931;28;20523;-74
2023/02/08 09:58:44;;;;;;;5.68;3.03;;;;;;;18.13;40.28;103682.00;4992115;28;20057;-74
2023/02/08 10:01:34;;;;;;;5.22;2.67;;;;;;;18.15;39.97;103676.66;4990161;28;20030;-74
2023/02/08 10:04:11;;;;;;;5.50;2.88;;;;;;;18.12;40.04;103673.22;4991869;28;20053;-74
2023/02/08 10:06:37;;;;;;;6.07;2.67;;;;;;;18.13;40.01;103672.31;4989933;28;20030;-75
2023/02/08 10:09:06;;;;;;;4.50;2.60;;;;;;;18.12;39.75;103675.00;4991200;28;20395;-75
2023/02/08 10:12:09;;;;;;;6.25;2.80;;;;;;;18.12;40.04;103672.38;5027081;28;20034;-75
2023/02/08 10:15:08;;;;;;;6.28;2.97;;;;;;;18.16;39.75;103670.47;5018507;28;20054;-69
2023/02/08 10:17:46;;;;;;;7.68;3.53;;;;;;;18.16;39.77;103679.25;5018634;28;20024;-75
2023/02/08 10:20:30;;;;;;;4.80;2.60;;;;;;;18.13;39.83;103684.63;5018111;28;20109;-74
2023/02/08 10:23:01;;;;;;;;;;;;;;;18.18;39.81;103687.09;5017129;28;20025;-72
2023/02/08 10:25:42;;;;;;;5.93;2.80;;;;;;;18.17;40.02;103688.91;5016353;28;19948;-74
2023/02/08 10:28:27;;;;;;;4.78;2.35;;;;;;;18.15;39.84;103682.81;5018146;28;20098;-75
2023/02/08 10:31:00;;;;;;;5.70;2.80;;;;;;;18.16;39.95;103686.31;5019360;28;20038;-73
2023/02/08 10:33:57;;;;;;;5.63;2.53;;;;;;;18.20;40.08;103695.81;5017849;28;20037;-75
2023/02/08 10:36:29;;;;;;;4.95;2.83;;;;;;;18.17;40.12;103699.44;4998204;28;20503;-74
2023/02/08 10:38:57;;;;;;;5.45;2.83;;;;;;;18.21;39.84;103702.84;4995526;28;20072;-78
2023/02/08 10:41:28;;;;;;;4.88;2.75;;;;;;;18.21;39.87;103693.13;4999483;28;20034;-76
2023/02/08 10:44:11;;;;;;;6.63;3.28;;;;;;;18.22;40.24;103694.00;5001209;28;20057;-73
2023/02/08 10:47:11;;;;;;;7.32;2.78;;;;;;;18.22;41.05;103686.94;5001542;28;20037;-71
2023/02/08 10:49:54;;;;;;;6.40;2.83;;;;;;;18.25;41.24;103694.75;4987463;28;20402;-73
2023/02/08 10:52:19;;;;;;;5.70;3.30;;;;;;;18.24;41.42;103692.16;4995740;28;20537;-75
2023/02/08 10:54:45;;;;;;;6.22;2.90;;;;;;;18.27;41.30;103698.19;4997949;28;20030;-73
2023/02/08 10:57:24;;;;;;;6.13;2.78;;;;;;;18.28;41.57;103688.50;4997439;28;20030;-76
2023/02/08 10:59:53;;;;;;;6.47;2.75;;;;;;;18.28;41.76;103683.22;4994766;28;20030;-74
2023/02/08 11:02:24;;;;;;;5.70;2.78;;;;;;;18.28;41.85;103684.06;4993387;28;20026;-75
2023/02/08 11:05:08;;;;;;;6.57;2.92;;;;;;;18.32;41.57;103674.25;4993995;28;20034;-74
2023/02/08 11:07:33;;;;;;;5.33;2.90;;;;;;;18.39;41.41;103678.41;4993089;28;20034;-74
2023/02/08 11:10:14;;;;;;;4.97;2.80;;;;;;;18.41;41.48;103679.19;4992888;28;20030;-73
2023/02/08 11:12:40;;;;;;;5.95;2.70;;;;;;;18.41;41.35;103670.41;4993562;28;20517;-74
2023/02/08 11:15:21;;;;;;;7.30;3.03;;;;;;;18.44;41.15;103668.50;4994810;28;20917;-78
2023/02/08 11:17:52;;;;;;;5.82;2.88;;;;;;;18.49;41.26;103665.69;4993378;28;20034;-76
2023/02/08 11:20:35;;;;;;;5.88;2.97;;;;;;;18.56;41.47;103676.88;4993267;28;20037;-75
2023/02/08 11:23:02;;;;;;;5.03;2.70;;;;;;;18.52;41.21;103662.06;4991730;28;20065;-71
2023/02/08 11:25:45;;;;;;;6.13;2.70;;;;;;;18.47;40.78;103657.00;4992225;28;20041;-70
2023/02/08 11:28:29;;;;;;;4.00;2.20;;;;;;;18.47;40.84;103659.63;4991963;28;20049;-69
2023/02/08 11:31:00;;;;;;;5.38;2.75;;;;;;;18.56;40.89;103650.47;4991506;28;20092;-73
2023/02/08 11:33:27;;;;;;;5.35;3.10;;;;;;;18.55;41.16;103654.03;4993719;28;20088;-73
2023/02/08 11:36:00;;;;;;;5.35;3.00;;;;;;;18.61;41.39;103644.09;4989979;28;20521;-73
2023/02/08 11:38:27;;;;;;;8.60;3.25;;;;;;;18.68;41.09;103644.72;4990267;28;20065;-75